createdAt,value
2023-01-09T00:01:45.691Z,7.80
2023-01-09T00:07:40.533Z,7.60
2023-01-09T00:13:34.007Z,7.50
2023-01-09T00:19:26.959Z,7.50
2023-01-09T00:25:23.140Z,7.40
2023-01-09T00:31:17.258Z,7.30
2023-01-09T00:37:13.417Z,7.40
2023-01-09T00:43:08.222Z,7.30
2023-01-09T00:49:03.115Z,7.30
2023-01-09T00:54:56.643Z,7.30
2023-01-09T01:00:51.567Z,7.30
2023-01-09T01:07:02.298Z,7.40
2023-01-09T01:12:56.023Z,7.30
2023-01-09T01:18:50.564Z,7.30
2023-01-09T01:24:44.072Z,7.40
2023-01-09T01:30:39.954Z,7.40
2023-01-09T01:36:35.127Z,7.40
2023-01-09T01:42:28.284Z,7.50
2023-01-09T01:48:26.578Z,7.50
2023-01-09T01:54:24.958Z,7.60
2023-01-09T02:00:22.656Z,7.50
2023-01-09T02:06:16.593Z,7.60
2023-01-09T02:12:20.300Z,7.60
2023-01-09T02:18:30.850Z,7.40
2023-01-09T02:25:00.413Z,7.60
2023-01-09T02:31:03.545Z,7.50
2023-01-09T02:37:04.187Z,7.50
2023-01-09T02:43:00.419Z,7.60
2023-01-09T02:48:56.213Z,7.60
2023-01-09T02:54:56.564Z,7.50
2023-01-09T03:00:58.571Z,7.70
2023-01-09T03:06:57.586Z,7.70
2023-01-09T03:12:54.737Z,7.60
2023-01-09T03:18:50.682Z,7.70
2023-01-09T03:24:45.639Z,7.60
2023-01-09T03:30:39.033Z,7.50
2023-01-09T03:36:32.875Z,7.40
2023-01-09T03:42:27.725Z,7.50
2023-01-09T03:48:21.275Z,7.40
2023-01-09T03:54:15.907Z,7.50
2023-01-09T04:00:12.194Z,7.50
2023-01-09T04:06:05.893Z,7.50
2023-01-09T04:11:59.294Z,7.50
2023-01-09T04:17:54.121Z,7.40
2023-01-09T04:23:47.587Z,7.50
2023-01-09T04:29:41.010Z,7.60
2023-01-09T04:35:36.929Z,7.60
2023-01-09T04:41:48.026Z,7.40
2023-01-09T04:47:41.470Z,7.40
2023-01-09T04:53:36.267Z,7.50
2023-01-09T04:59:29.726Z,7.60
2023-01-09T05:05:23.175Z,7.60
2023-01-09T05:11:18.133Z,7.50
2023-01-09T05:17:12.673Z,7.50
2023-01-09T05:23:06.206Z,7.60
2023-01-09T05:29:01.007Z,7.40
2023-01-09T05:34:54.488Z,7.50
2023-01-09T05:40:48.014Z,7.40
2023-01-09T05:46:42.785Z,7.30
2023-01-09T05:52:36.155Z,7.30
2023-01-09T05:58:30.625Z,7.30
2023-01-09T06:04:26.050Z,7.30
2023-01-09T06:10:19.553Z,7.30
2023-01-09T06:22:28.011Z,7.40
2023-01-09T06:28:21.442Z,7.40
2023-01-09T06:34:14.952Z,7.50
2023-01-09T06:40:11.627Z,7.50
2023-01-09T06:46:06.035Z,7.60
2023-01-09T06:51:59.506Z,7.50
2023-01-09T06:57:55.541Z,7.60
2023-01-09T07:03:49.762Z,7.60
2023-01-09T07:09:43.312Z,7.60
2023-01-09T07:15:38.441Z,7.50
2023-01-09T07:21:32.908Z,7.50
2023-01-09T07:27:26.553Z,7.50
2023-01-09T07:33:21.306Z,7.50
2023-01-09T07:39:14.907Z,7.50
2023-01-09T07:45:09.075Z,7.50
2023-01-09T07:51:03.878Z,7.50
2023-01-09T07:56:58.357Z,7.50
2023-01-09T08:02:55.349Z,7.50
2023-01-09T08:08:50.423Z,7.40
2023-01-09T08:14:43.599Z,7.40
2023-01-09T08:20:37.166Z,7.50
2023-01-09T08:26:31.997Z,7.40
2023-01-09T08:32:25.610Z,7.40
2023-01-09T08:38:19.201Z,7.40
2023-01-09T08:44:31.646Z,7.30
2023-01-09T08:50:25.252Z,7.30
2023-01-09T08:56:18.739Z,7.20
2023-01-09T09:02:13.640Z,7.30
2023-01-09T09:08:07.627Z,7.30
2023-01-09T09:14:01.140Z,7.30
2023-01-09T09:19:55.908Z,7.50
2023-01-09T09:25:49.336Z,7.70
2023-01-09T09:31:42.811Z,8.00
2023-01-09T09:37:38.731Z,8.00
2023-01-09T09:44:12.064Z,8.00
2023-01-09T09:50:18.198Z,7.90
2023-01-09T09:56:15.734Z,8.00
2023-01-09T10:02:25.176Z,7.80
2023-01-09T10:08:31.636Z,7.60
2023-01-09T10:14:26.990Z,7.50
2023-01-09T10:20:49.628Z,7.50
2023-01-09T10:26:48.342Z,7.40
2023-01-09T10:32:53.486Z,7.50
2023-01-09T10:38:50.268Z,7.40
2023-01-09T10:44:49.670Z,7.40
2023-01-09T10:50:47.076Z,7.40
2023-01-09T10:56:43.424Z,7.30
2023-01-09T11:02:37.445Z,7.40
2023-01-09T11:08:40.526Z,7.40
2023-01-09T11:14:33.939Z,7.30
2023-01-09T11:20:29.934Z,7.30
2023-01-09T11:26:27.272Z,7.20
2023-01-09T11:32:24.570Z,7.30
2023-01-09T11:38:18.400Z,7.40
2023-01-09T11:44:17.555Z,7.50
2023-01-09T11:50:19.113Z,7.50
2023-01-09T11:56:19.543Z,7.60
2023-01-09T12:02:52.531Z,8.10
2023-01-09T12:08:56.731Z,8.40
2023-01-09T12:15:02.746Z,8.50
2023-01-09T12:21:09.086Z,8.30
2023-01-09T12:27:16.056Z,8.20
2023-01-09T12:33:27.425Z,8.20
2023-01-09T12:39:31.849Z,8.20
2023-01-09T12:45:39.126Z,8.20
2023-01-09T12:51:39.023Z,8.10
2023-01-09T12:57:38.003Z,8.00
2023-01-09T13:03:38.010Z,8.00
2023-01-09T13:09:39.738Z,8.00
2023-01-09T13:15:39.167Z,8.10
2023-01-09T13:21:33.342Z,8.10
2023-01-09T13:27:28.238Z,8.00
2023-01-09T13:33:25.475Z,8.10
2023-01-09T13:39:25.232Z,8.20
2023-01-09T13:45:25.818Z,8.10
2023-01-09T13:51:59.243Z,8.10
2023-01-09T13:58:27.293Z,8.00
2023-01-09T14:04:46.820Z,8.10
2023-01-09T14:10:49.744Z,8.00
2023-01-09T14:16:43.455Z,8.00
2023-01-09T14:22:50.319Z,8.10
2023-01-09T14:28:51.875Z,8.10
2023-01-09T14:34:45.402Z,8.10
2023-01-09T14:40:40.167Z,8.10
2023-01-09T14:46:39.411Z,8.00
2023-01-09T14:52:39.063Z,8.10
2023-01-09T14:58:34.010Z,8.10
2023-01-09T15:04:35.167Z,8.10
2023-01-09T15:10:32.966Z,8.10
2023-01-09T15:16:27.954Z,7.80
2023-01-09T15:22:30.562Z,7.80
2023-01-09T15:28:27.319Z,7.70
2023-01-09T15:34:23.218Z,7.50
2023-01-09T15:40:26.469Z,7.50
2023-01-09T15:46:19.964Z,7.50
2023-01-09T15:52:15.278Z,7.50
2023-01-09T15:58:29.655Z,7.70
2023-01-09T16:04:25.038Z,7.70
2023-01-09T16:10:25.274Z,7.60
2023-01-09T16:16:28.011Z,7.60
2023-01-09T16:22:24.038Z,7.60
2023-01-09T16:28:23.484Z,7.40
2023-01-09T16:34:18.322Z,7.40
2023-01-09T16:40:33.444Z,7.30
2023-01-09T16:46:26.997Z,7.50
2023-01-09T16:52:21.842Z,7.50
2023-01-09T16:58:18.582Z,7.60
2023-01-09T17:04:13.834Z,7.50
2023-01-09T17:10:21.728Z,7.50
2023-01-09T17:16:16.016Z,7.70
2023-01-09T17:22:09.876Z,7.70
2023-01-09T17:28:25.823Z,7.60
2023-01-09T17:34:19.291Z,7.70
2023-01-09T17:40:19.674Z,7.60
2023-01-09T17:46:17.560Z,7.50
2023-01-09T17:52:11.033Z,7.60
2023-01-09T17:58:04.084Z,7.60
2023-01-09T18:03:58.880Z,7.60
2023-01-09T18:09:52.269Z,7.50
2023-01-09T18:15:46.325Z,7.40
2023-01-09T18:21:42.222Z,7.50
2023-01-09T18:27:37.063Z,7.50
2023-01-09T18:33:30.572Z,7.50
2023-01-09T18:39:26.323Z,7.40
2023-01-09T18:45:19.933Z,7.40
2023-01-09T18:51:13.308Z,7.40
2023-01-09T18:57:08.113Z,7.50
2023-01-09T19:03:01.571Z,7.40
2023-01-09T19:08:55.524Z,7.40
2023-01-09T19:14:50.321Z,7.40
2023-01-09T19:20:43.719Z,7.50
2023-01-09T19:26:37.135Z,7.50
2023-01-09T19:32:31.979Z,7.60
2023-01-09T19:38:25.395Z,7.60
2023-01-09T19:44:19.393Z,7.70
2023-01-09T19:50:14.314Z,7.50
2023-01-09T19:56:09.574Z,7.50
2023-01-09T20:02:03.681Z,7.40
2023-01-09T20:07:58.945Z,7.30
2023-01-09T20:13:52.708Z,7.40
2023-01-09T20:19:46.550Z,7.30
2023-01-09T20:25:41.332Z,7.40
2023-01-09T20:31:35.027Z,7.40
2023-01-09T20:37:28.452Z,7.30
2023-01-09T20:43:23.209Z,7.30
2023-01-09T20:49:18.117Z,7.40
2023-01-09T20:55:12.268Z,7.30
2023-01-09T21:01:11.525Z,7.30
2023-01-09T21:07:04.578Z,7.20
2023-01-09T21:12:57.959Z,7.30
2023-01-09T21:18:53.968Z,7.30
2023-01-09T21:24:50.592Z,7.30
2023-01-09T21:30:44.852Z,7.20
2023-01-09T21:36:39.774Z,7.20
2023-01-09T21:42:50.852Z,7.20
2023-01-09T21:48:43.943Z,7.20
2023-01-09T21:54:38.767Z,7.10
2023-01-09T22:00:32.812Z,7.10
2023-01-09T22:06:26.164Z,7.10
2023-01-09T22:12:20.934Z,7.10
2023-01-09T22:18:14.390Z,7.10
2023-01-09T22:24:09.845Z,7.10
2023-01-09T22:30:04.981Z,7.10
2023-01-09T22:35:58.510Z,7.10
2023-01-09T22:41:54.820Z,7.10
2023-01-09T22:47:49.737Z,7.20
2023-01-09T22:53:43.672Z,7.20
2023-01-09T22:59:37.168Z,7.20
2023-01-09T23:05:31.965Z,7.20
2023-01-09T23:11:44.927Z,7.10
2023-01-09T23:17:38.308Z,7.20
2023-01-09T23:23:33.585Z,7.20
2023-01-09T23:29:27.240Z,7.20
2023-01-09T23:35:20.679Z,7.20
2023-01-09T23:41:15.491Z,7.20
2023-01-09T23:47:08.898Z,7.20
2023-01-09T23:53:02.570Z,7.20
2023-01-09T23:58:57.299Z,7.30
